Time;durP1;ratioP1;P1;durP2;ratioP2;P2;SDS_P1;SDS_P2;PMS_P1;PMS_P2;Temp;Humidity;BMP_temperature;BMP_pressure;BME280_temperature;BME280_humidity;BME280_pressure;Samples;Min_cycle;Max_cycle;Signal;HPM_P1;HPM_P2
2021/06/23 00:02:19;;;;;;;6.37;2.87;;;;;;;16.58;56.97;101771.97;6184672;28;20238;-48
2021/06/23 00:05:40;;;;;;;9.13;3.40;;;;;;;16.66;57.14;101775.31;6158239;28;20238;-52
2021/06/23 00:09:01;;;;;;;6.30;2.63;;;;;;;16.44;57.21;101781.00;6188250;28;20390;-53
2021/06/23 00:12:23;;;;;;;4.93;2.87;;;;;;;16.57;56.84;101783.38;6187383;28;20261;-53
2021/06/23 00:15:44;;;;;;;8.57;3.50;;;;;;;16.77;56.79;101775.09;6178807;28;20241;-51
2021/06/23 00:19:05;;;;;;;8.10;2.60;;;;;;;16.80;56.64;101777.69;6179693;28;20269;-55
2021/06/23 00:22:26;;;;;;;10.27;3.03;;;;;;;16.76;56.69;101794.44;6186470;28;20268;-54
2021/06/23 00:25:46;;;;;;;13.00;3.83;;;;;;;16.91;56.50;101781.00;6191148;28;20516;-54
2021/06/23 00:29:09;;;;;;;8.00;2.90;;;;;;;16.64;56.96;101777.97;6175513;28;20249;-52
2021/06/23 00:32:32;;;;;;;9.77;3.00;;;;;;;16.90;56.51;101782.78;6184256;28;20640;-51
2021/06/23 00:35:53;;;;;;;5.93;3.80;;;;;;;16.48;58.06;101776.53;6175590;28;20579;-51
2021/06/23 00:39:14;;;;;;;6.77;3.57;;;;;;;16.69;57.68;101776.13;6186110;28;20222;-50
2021/06/23 00:42:35;;;;;;;7.33;3.10;;;;;;;16.44;58.77;101769.59;6175652;28;20269;-52
2021/06/23 00:45:58;;;;;;;9.37;3.07;;;;;;;16.70;58.28;101756.81;6189924;28;20316;-49
2021/06/23 00:49:19;;;;;;;9.80;3.07;;;;;;;16.93;57.72;101753.75;6179984;28;20226;-54
2021/06/23 00:53:00;;;;;;;6.27;2.97;;;;;;;16.98;57.60;101760.69;6183966;28;20245;-51
2021/06/23 00:56:32;;;;;;;6.23;2.63;;;;;;;16.73;58.51;101756.78;6180444;28;20225;-53
2021/06/23 00:59:56;;;;;;;5.97;3.10;;;;;;;16.87;58.32;101753.03;6180291;28;20745;-51
2021/06/23 01:03:19;;;;;;;4.23;3.07;;;;;;;16.56;59.55;101776.41;6185778;28;20796;-54
2021/06/23 01:06:49;;;;;;;8.27;3.90;;;;;;;16.82;59.06;101763.63;6182634;28;20324;-54
2021/06/23 01:10:12;;;;;;;7.33;3.37;;;;;;;16.89;58.85;101769.66;6185561;28;20784;-54
2021/06/23 01:13:38;;;;;;;7.63;3.00;;;;;;;16.76;59.37;101776.00;6184539;28;20256;-52
2021/06/23 01:17:03;;;;;;;6.30;2.63;;;;;;;16.83;59.12;101775.03;6186672;28;20225;-53
2021/06/23 01:20:26;;;;;;;8.87;3.50;;;;;;;16.92;58.95;101766.94;6188476;28;20579;-51
2021/06/23 01:23:49;;;;;;;5.97;3.53;;;;;;;17.20;58.44;101750.59;6187878;28;20230;-48
2021/06/23 01:27:11;;;;;;;27.13;5.87;;;;;;;17.01;58.94;101750.09;6189802;28;20344;-53
2021/06/23 01:30:32;;;;;;;6.97;4.10;;;;;;;16.99;58.99;101751.91;6184220;28;20367;-50
2021/06/23 01:34:01;;;;;;;6.93;3.77;;;;;;;16.90;59.33;101763.47;6181052;28;20233;-55
2021/06/23 01:37:22;;;;;;;9.17;3.13;;;;;;;17.09;59.20;101756.94;6187186;28;20608;-51
2021/06/23 01:40:45;;;;;;;9.93;4.30;;;;;;;16.93;60.02;101755.53;6188918;28;20225;-52
2021/06/23 01:44:06;;;;;;;7.00;4.40;;;;;;;16.79;60.51;101752.25;6176274;28;20699;-52
2021/06/23 01:47:27;;;;;;;6.40;3.60;;;;;;;17.00;59.93;101754.50;6178998;28;20229;-54
2021/06/23 01:50:53;;;;;;;6.47;4.00;;;;;;;16.65;61.13;101763.94;6171432;28;20225;-53
2021/06/23 01:54:14;;;;;;;10.33;4.43;;;;;;;16.58;61.74;101783.34;6192175;28;20563;-53
2021/06/23 01:57:40;;;;;;;6.93;3.80;;;;;;;16.30;63.04;101781.25;6184221;28;20230;-48
2021/06/23 02:01:11;;;;;;;10.07;3.20;;;;;;;16.59;62.50;101773.69;6182319;28;20619;-49
2021/06/23 02:04:50;;;;;;;8.17;3.70;;;;;;;16.63;62.16;101781.50;6187546;28;20526;-53
2021/06/23 02:08:30;;;;;;;10.57;3.97;;;;;;;16.35;63.90;101786.41;6184801;28;20476;-54
2021/06/23 02:12:02;;;;;;;5.50;3.70;;;;;;;16.59;63.10;101790.34;6183230;28;20229;-50
2021/06/23 02:15:26;;;;;;;7.80;4.27;;;;;;;16.96;62.00;101794.06;6197133;28;20241;-54
2021/06/23 02:19:05;;;;;;;6.93;4.47;;;;;;;17.03;61.54;101793.91;6180867;28;20242;-50
2021/06/23 02:22:49;;;;;;;6.83;3.37;;;;;;;17.01;61.68;101803.59;6171534;28;20587;-55
2021/06/23 02:26:17;;;;;;;8.37;4.63;;;;;;;16.89;62.40;101814.38;6175235;28;20228;-53
2021/06/23 02:29:38;;;;;;;7.47;4.00;;;;;;;16.79;63.10;101807.50;6186990;28;20229;-50
2021/06/23 02:33:02;;;;;;;11.53;4.60;;;;;;;16.19;65.36;101800.69;6182586;28;20744;-55
2021/06/23 02:36:31;;;;;;;10.67;5.20;;;;;;;15.96;66.35;101806.34;6183713;28;20776;-54
2021/06/23 02:39:54;;;;;;;13.40;5.37;;;;;;;16.43;64.75;101808.16;6144605;28;20287;-53
2021/06/23 02:43:16;;;;;;;10.40;4.33;;;;;;;16.37;64.84;101810.03;6183448;28;20230;-51
2021/06/23 02:46:37;;;;;;;8.13;4.20;;;;;;;15.99;66.78;101803.66;6190258;28;20242;-48
2021/06/23 02:50:14;;;;;;;14.47;4.80;;;;;;;16.28;65.76;101805.78;6190842;28;20648;-51
2021/06/23 02:54:02;;;;;;;6.50;4.13;;;;;;;15.59;68.96;101804.25;6183524;28;20226;-50
2021/06/23 02:57:38;;;;;;;9.30;4.43;;;;;;;15.84;68.30;101813.50;6189286;28;20760;-49
2021/06/23 03:01:00;;;;;;;6.53;3.87;;;;;;;16.08;67.36;101820.13;6188838;28;20691;-51
2021/06/23 03:04:31;;;;;;;9.00;4.13;;;;;;;16.26;67.12;101818.94;6185453;28;20265;-52
2021/06/23 03:08:14;;;;;;;13.43;5.23;;;;;;;15.99;68.23;101827.28;6189460;28;20642;-50
2021/06/23 03:11:41;;;;;;;10.83;5.20;;;;;;;16.31;67.01;101824.16;6184293;28;20230;-49
2021/06/23 03:15:11;;;;;;;10.70;4.90;;;;;;;15.84;68.86;101831.91;6180489;28;20918;-52
2021/06/23 03:18:33;;;;;;;9.00;5.40;;;;;;;15.87;68.71;101842.34;6187656;28;20587;-52
2021/06/23 03:21:54;;;;;;;8.53;6.07;;;;;;;15.31;71.46;101849.19;6179440;28;20230;-52
2021/06/23 03:25:21;;;;;;;9.73;5.93;;;;;;;15.91;69.11;101849.28;6188933;28;20226;-54
2021/06/23 03:28:42;;;;;;;11.87;6.53;;;;;;;15.03;72.50;101860.03;6189390;28;20612;-51
2021/06/23 03:32:06;;;;;;;9.17;6.43;;;;;;;14.88;72.85;101868.06;6186361;28;20246;-47
2021/06/23 03:35:30;;;;;;;12.77;6.37;;;;;;;14.74;73.81;101876.06;6187349;28;20392;-49
2021/06/23 03:38:51;;;;;;;10.97;7.87;;;;;;;15.54;70.53;101875.16;6188044;28;20225;-54
2021/06/23 03:42:14;;;;;;;7.70;5.80;;;;;;;15.86;68.84;101868.66;6184889;28;20231;-49
2021/06/23 03:45:37;;;;;;;10.33;5.90;;;;;;;16.08;67.71;101875.31;6189617;28;20510;-50
2021/06/23 03:48:58;;;;;;;9.93;5.57;;;;;;;15.77;68.67;101869.63;6188755;28;20300;-52
2021/06/23 03:52:20;;;;;;;8.70;4.80;;;;;;;16.03;67.09;101868.38;6181157;28;20229;-51
2021/06/23 03:55:42;;;;;;;8.50;5.47;;;;;;;15.96;67.64;101878.13;6186030;28;20615;-51
2021/06/23 03:59:04;;;;;;;10.23;5.50;;;;;;;15.50;69.63;101882.22;6188253;28;20344;-52
2021/06/23 04:02:25;;;;;;;11.40;7.27;;;;;;;16.12;67.14;101884.03;6187172;28;20237;-51
2021/06/23 04:05:47;;;;;;;9.87;6.40;;;;;;;16.26;66.51;101882.03;6182945;28;20226;-50
2021/06/23 04:09:08;;;;;;;13.23;6.73;;;;;;;15.50;69.21;101881.34;6185946;28;20238;-51
2021/06/23 04:12:33;;;;;;;8.70;5.17;;;;;;;16.24;66.63;101875.06;6188386;28;20218;-53
2021/06/23 04:15:55;;;;;;;11.00;5.90;;;;;;;16.12;67.14;101884.03;6186036;28;22067;-47
2021/06/23 04:19:17;;;;;;;11.60;5.70;;;;;;;16.56;65.79;101887.69;6181432;28;22737;-53
2021/06/23 04:22:46;;;;;;;10.63;7.80;;;;;;;16.29;66.29;101889.03;6185472;28;20249;-53
2021/06/23 04:26:08;;;;;;;10.57;6.80;;;;;;;16.80;64.39;101890.78;6182800;28;20218;-55
2021/06/23 04:29:29;;;;;;;11.73;7.97;;;;;;;16.85;64.74;101883.72;6189181;28;20513;-50
2021/06/23 04:32:53;;;;;;;14.37;7.00;;;;;;;16.81;64.62;101888.16;6190136;28;20233;-50
2021/06/23 04:36:23;;;;;;;13.10;6.27;;;;;;;16.80;64.80;101875.00;6189342;28;20611;-53
2021/06/23 04:39:44;;;;;;;14.10;6.43;;;;;;;16.96;64.17;101873.84;6186170;28;20785;-55
2021/06/23 04:43:08;;;;;;;12.07;5.93;;;;;;;17.29;63.86;101874.09;6201669;28;20240;-55
2021/06/23 04:46:32;;;;;;;14.83;6.60;;;;;;;17.47;62.99;101880.75;6179603;28;20594;-51
2021/06/23 04:49:55;;;;;;;17.70;6.90;;;;;;;17.29;63.01;101871.47;6181208;28;20238;-52
2021/06/23 04:53:18;;;;;;;11.53;5.80;;;;;;;16.63;66.06;101888.44;6180227;28;20233;-51
2021/06/23 04:56:40;;;;;;;18.10;11.77;;;;;;;17.06;64.83;101890.31;6177709;28;20230;-49
2021/06/23 05:00:02;;;;;;;15.53;8.83;;;;;;;17.12;64.57;101888.47;6173995;28;20237;-56
2021/06/23 05:03:24;;;;;;;15.00;5.80;;;;;;;17.04;64.50;101895.66;6184934;28;20233;-52
2021/06/23 05:06:47;;;;;;;12.57;6.67;;;;;;;16.96;64.88;101889.63;6183088;28;20249;-55
2021/06/23 05:10:08;;;;;;;15.30;5.37;;;;;;;17.11;64.46;101891.97;6180090;28;20238;-53
2021/06/23 05:13:29;;;;;;;15.27;6.50;;;;;;;17.19;64.27;101896.25;6181081;28;20622;-53
2021/06/23 05:16:51;;;;;;;17.43;6.60;;;;;;;17.02;64.59;101892.19;6184108;28;20526;-49
2021/06/23 05:20:13;;;;;;;15.17;5.57;;;;;;;17.27;63.94;101900.47;6181862;28;20251;-53
2021/06/23 05:23:35;;;;;;;15.60;5.93;;;;;;;17.44;62.98;101900.09;6187500;28;20226;-51
2021/06/23 05:26:56;;;;;;;11.17;5.70;;;;;;;17.42;63.31;101899.28;6180284;28;20229;-53
2021/06/23 05:30:18;;;;;;;13.07;5.83;;;;;;;17.42;63.17;101898.41;6185683;28;20234;-50
2021/06/23 05:33:39;;;;;;;9.87;4.50;;;;;;;17.50;63.08;101894.72;6185384;28;20230;-52
2021/06/23 05:37:01;;;;;;;11.80;5.03;;;;;;;17.38;63.15;101892.34;6179067;28;20230;-53
2021/06/23 05:40:23;;;;;;;13.70;5.87;;;;;;;17.22;64.06;101898.81;6179293;28;20321;-52
2021/06/23 05:43:44;;;;;;;14.13;6.33;;;;;;;17.30;63.73;101900.38;6178100;28;20229;-54
2021/06/23 05:47:05;;;;;;;12.73;4.63;;;;;;;17.62;62.63;101905.88;6164168;28;20363;-58
2021/06/23 05:50:26;;;;;;;26.67;7.03;;;;;;;17.34;63.15;101911.72;6169333;28;20655;-59
2021/06/23 05:53:47;;;;;;;14.90;5.18;;;;;;;17.82;61.72;101903.69;6179189;28;20312;-56
2021/06/23 05:57:10;;;;;;;12.25;5.72;;;;;;;17.80;61.36;101899.38;6170468;28;20249;-60
2021/06/23 06:00:31;;;;;;;16.63;5.77;;;;;;;17.32;63.27;101906.50;6178861;28;20229;-57
2021/06/23 06:03:53;;;;;;;14.00;5.50;;;;;;;17.97;61.62;101912.19;6175858;28;20241;-59
2021/06/23 06:07:14;;;;;;;9.00;4.68;;;;;;;18.08;60.96;101910.19;6179183;28;20229;-61
2021/06/23 06:10:35;;;;;;;8.87;5.03;;;;;;;18.63;59.16;101907.97;6180235;28;20268;-60
2021/06/23 06:13:57;;;;;;;14.07;5.43;;;;;;;18.67;58.37;101921.06;6195327;28;20320;-61
2021/06/23 06:17:18;;;;;;;12.40;5.82;;;;;;;18.71;58.49;101908.66;6178056;28;20476;-60
2021/06/23 06:20:39;;;;;;;6.90;5.17;;;;;;;18.33;59.34;101904.34;6189374;28;20328;-52
2021/06/23 06:24:00;;;;;;;12.18;4.85;;;;;;;18.50;58.69;101915.34;6182463;28;20413;-56
2021/06/23 06:27:21;;;;;;;9.68;4.28;;;;;;;18.72;57.99;101920.06;6184657;28;20269;-54
2021/06/23 06:30:44;;;;;;;17.15;6.00;;;;;;;19.11;57.08;101923.44;6188821;28;20248;-54
2021/06/23 06:34:05;;;;;;;6.63;4.10;;;;;;;19.17;56.53;101927.69;6190234;28;20850;-56
2021/06/23 06:37:26;;;;;;;11.00;4.72;;;;;;;18.92;57.31;101928.38;6188991;28;20233;-54
2021/06/23 06:40:47;;;;;;;13.23;5.70;;;;;;;19.00;56.80;101941.34;6187922;28;20316;-55
2021/06/23 06:44:08;;;;;;;11.10;5.47;;;;;;;18.42;58.92;101952.44;6183022;28;20328;-55
2021/06/23 06:47:31;;;;;;;10.05;4.72;;;;;;;18.54;58.81;101959.19;6186655;28;20229;-53
2021/06/23 06:50:53;;;;;;;9.57;4.87;;;;;;;18.22;60.09;101955.56;6187159;28;20238;-54
2021/06/23 06:54:14;;;;;;;11.98;4.72;;;;;;;18.40;59.80;101958.69;6186214;28;20233;-54
2021/06/23 06:57:36;;;;;;;6.10;3.63;;;;;;;18.77;59.42;101963.06;6182302;28;20245;-52
2021/06/23 07:00:57;;;;;;;9.63;4.60;;;;;;;19.06;57.07;101957.06;6178456;28;20257;-53
2021/06/23 07:04:19;;;;;;;9.95;4.57;;;;;;;19.40;56.13;101959.63;6181031;28;20250;-49
2021/06/23 07:07:41;;;;;;;10.00;4.53;;;;;;;19.37;56.25;101956.22;6181822;28;20641;-53
2021/06/23 07:11:02;;;;;;;12.07;4.30;;;;;;;19.52;55.37;101946.97;6181024;28;20317;-56
2021/06/23 07:14:23;;;;;;;7.53;4.13;;;;;;;19.69;54.43;101944.72;6181673;28;20230;-52
2021/06/23 07:17:44;;;;;;;12.13;5.22;;;;;;;19.97;54.24;101941.31;6178739;28;20233;-52
2021/06/23 07:21:07;;;;;;;11.02;5.95;;;;;;;19.20;55.74;101946.13;6180406;28;20257;-55
2021/06/23 07:24:28;;;;;;;5.88;3.47;;;;;;;19.52;55.21;101945.19;6178144;28;20261;-53
2021/06/23 07:27:49;;;;;;;10.90;4.22;;;;;;;20.18;52.08;101943.28;6172066;28;20253;-51
2021/06/23 07:31:11;;;;;;;8.60;4.68;;;;;;;20.63;51.93;101948.00;6176438;28;20234;-53
2021/06/23 07:36:31;;;;;;;10.45;4.45;;;;;;;20.84;51.80;101950.88;6176326;28;20238;-53
2021/06/23 07:38:18;;;;;;;9.40;4.25;;;;;;;19.91;53.54;101950.28;6175732;28;20269;-48
2021/06/23 07:41:41;;;;;;;8.70;4.63;;;;;;;20.08;53.62;101941.81;6175283;28;20233;-47
2021/06/23 07:45:03;;;;;;;7.95;4.40;;;;;;;20.51;52.30;101935.16;6175866;28;20222;-46
2021/06/23 07:48:29;;;;;;;4.85;3.55;;;;;;;20.72;51.23;101944.19;6180079;28;20628;-51
2021/06/23 07:51:57;;;;;;;14.10;3.97;;;;;;;19.38;54.20;101944.72;6162258;28;20491;-53
2021/06/23 08:10:08;;;;;;;5.97;2.80;;;;;;;20.92;48.46;101958.50;6182117;28;20325;-55
2021/06/23 08:13:30;;;;;;;3.60;2.67;;;;;;;20.31;50.30;101958.75;6183825;28;21050;-52
2021/06/23 08:16:51;;;;;;;6.35;3.75;;;;;;;19.66;52.47;101960.69;6176535;28;20237;-53
2021/06/23 08:20:13;;;;;;;5.15;3.08;;;;;;;20.14;51.24;101968.09;6182777;28;20225;-54
2021/06/23 08:23:34;;;;;;;6.60;3.00;;;;;;;20.01;50.84;101967.59;6184709;28;20253;-50
2021/06/23 08:26:55;;;;;;;4.90;2.70;;;;;;;20.09;51.26;101967.34;6185279;28;21605;-51
2021/06/23 08:30:19;;;;;;;5.90;3.72;;;;;;;20.63;49.47;101970.97;6188220;28;20513;-52
2021/06/23 08:33:40;;;;;;;4.85;3.05;;;;;;;21.04;49.22;101971.34;6172602;28;20237;-53
2021/06/23 08:37:01;;;;;;;7.97;3.42;;;;;;;20.57;49.55;101972.00;6183773;28;20651;-53
2021/06/23 08:40:22;;;;;;;3.17;2.53;;;;;;;20.21;50.44;101971.41;6183567;28;20238;-49
2021/06/23 08:43:44;;;;;;;2.92;2.42;;;;;;;20.19;50.57;101968.78;6180363;28;21449;-53
2021/06/23 08:47:06;;;;;;;8.65;3.25;;;;;;;20.54;50.60;101961.50;6185489;28;20229;-52
2021/06/23 08:50:27;;;;;;;8.13;2.97;;;;;;;18.95;54.80;101962.59;6178570;28;20241;-55
2021/06/23 08:53:48;;;;;;;6.82;3.42;;;;;;;20.12;52.63;101961.94;6180974;28;20230;-52
2021/06/23 08:57:10;;;;;;;5.07;3.10;;;;;;;20.92;50.48;101975.28;6177589;28;20245;-54
2021/06/23 09:00:32;;;;;;;4.43;3.50;;;;;;;21.41;49.68;101976.19;6183298;28;20229;-54
2021/06/23 09:04:06;;;;;;;4.80;2.88;;;;;;;21.34;48.14;101969.38;6174601;28;20229;-54
2021/06/23 09:07:41;;;;;;;3.47;2.65;;;;;;;21.01;49.41;101968.81;6188930;28;20229;-54
2021/06/23 09:11:04;;;;;;;5.47;3.08;;;;;;;21.46;48.60;101972.56;6181457;28;20241;-53
2021/06/23 09:14:26;;;;;;;6.60;3.42;;;;;;;21.86;47.17;101966.63;6164576;28;20539;-48
2021/06/23 09:17:47;;;;;;;6.20;2.88;;;;;;;22.14;46.15;101966.44;6180690;28;20234;-55
2021/06/23 09:21:15;;;;;;;5.03;2.70;;;;;;;20.82;49.50;101985.34;6178146;28;20242;-52
2021/06/23 09:24:39;;;;;;;5.28;2.92;;;;;;;20.83;49.37;101986.19;6178907;28;20237;-56
2021/06/23 09:28:02;;;;;;;4.88;2.63;;;;;;;21.30;47.27;101983.66;6184804;28;20225;-55
2021/06/23 09:31:24;;;;;;;4.05;2.67;;;;;;;21.76;47.21;101982.03;6173361;28;20241;-53
2021/06/23 09:34:47;;;;;;;6.82;3.17;;;;;;;21.54;47.73;101979.31;6170332;28;20375;-52
2021/06/23 09:38:30;;;;;;;5.88;2.42;;;;;;;21.99;47.43;101972.34;6184121;28;20525;-54
2021/06/23 09:41:52;;;;;;;3.95;2.85;;;;;;;21.51;47.78;101975.91;6177361;28;20328;-52
2021/06/23 09:45:16;;;;;;;5.03;3.28;;;;;;;21.48;47.06;101982.19;6172339;28;20254;-54
2021/06/23 09:48:37;;;;;;;6.07;3.05;;;;;;;20.71;48.95;101976.88;6187566;28;20249;-51
2021/06/23 09:52:00;;;;;;;4.88;2.95;;;;;;;21.46;47.52;101976.09;6175862;28;20852;-54
2021/06/23 09:55:34;;;;;;;7.22;3.25;;;;;;;22.43;45.72;101967.09;6177284;28;20238;-52
2021/06/23 09:58:55;;;;;;;6.18;3.63;;;;;;;22.39;45.11;101976.06;6168852;28;20230;-56
2021/06/23 10:02:26;;;;;;;4.70;3.05;;;;;;;22.76;43.95;101964.81;6176135;28;21685;-53
2021/06/23 10:05:46;;;;;;;4.82;3.00;;;;;;;22.52;44.48;101963.19;6174527;28;20245;-54
2021/06/23 10:09:22;;;;;;;4.60;2.55;;;;;;;22.87;43.15;101959.03;6170240;28;20514;-50
2021/06/23 10:12:46;;;;;;;3.63;2.90;;;;;;;23.90;41.80;101964.25;6174799;28;20234;-54
2021/06/23 10:16:07;;;;;;;5.50;3.60;;;;;;;23.45;42.80;101957.44;6172137;28;20229;-55
2021/06/23 10:19:28;;;;;;;7.28;3.25;;;;;;;23.73;42.22;101952.59;6178942;28;20261;-54
2021/06/23 10:22:50;;;;;;;5.35;2.97;;;;;;;23.19;42.80;101951.53;6166666;28;20261;-50
2021/06/23 10:26:12;;;;;;;6.25;3.38;;;;;;;23.86;41.26;101952.91;6172770;28;20233;-54
2021/06/23 10:29:36;;;;;;;3.92;2.53;;;;;;;24.20;41.63;101945.13;6176122;28;20238;-53
2021/06/23 10:32:58;;;;;;;4.32;2.95;;;;;;;24.22;39.69;101948.56;6167557;28;20631;-53
2021/06/23 10:36:20;;;;;;;4.28;2.95;;;;;;;24.58;39.77;101951.22;6175752;28;20233;-53
2021/06/23 10:39:42;;;;;;;8.52;3.53;;;;;;;24.37;38.70;101955.81;6181565;28;20237;-55
2021/06/23 10:43:13;;;;;;;11.20;10.18;;;;;;;24.06;38.82;101949.31;6168987;28;20812;-55
2021/06/23 10:46:42;;;;;;;9.30;3.75;;;;;;;24.44;39.64;101943.91;6170159;28;20294;-55
2021/06/23 10:50:04;;;;;;;7.50;2.72;;;;;;;21.94;43.91;101958.38;6171942;28;20685;-55
2021/06/23 10:53:32;;;;;;;6.78;3.85;;;;;;;23.97;40.97;101955.91;6175866;28;20230;-54
2021/06/23 10:56:53;;;;;;;3.65;2.85;;;;;;;24.42;38.78;101967.06;6171032;28;20635;-55
2021/06/23 11:00:32;;;;;;;5.95;3.67;;;;;;;24.06;39.18;101964.41;6179779;28;20237;-54
2021/06/23 11:04:04;;;;;;;6.43;3.35;;;;;;;23.73;40.50;101973.88;6170751;28;20229;-51
2021/06/23 11:07:35;;;;;;;5.13;2.80;;;;;;;24.02;38.26;101971.69;6178463;28;20603;-53
2021/06/23 11:10:59;;;;;;;5.38;3.05;;;;;;;24.03;38.64;101970.72;6185861;28;20233;-51
2021/06/23 11:14:21;;;;;;;4.90;2.72;;;;;;;23.73;39.79;101979.19;6177082;28;20229;-49
2021/06/23 11:17:43;;;;;;;4.05;2.58;;;;;;;23.49;39.93;101977.66;6165228;28;20256;-54
2021/06/23 11:21:21;;;;;;;4.18;2.88;;;;;;;23.28;40.64;101980.31;6176735;28;20226;-55
2021/06/23 11:24:42;;;;;;;5.32;3.85;;;;;;;22.78;40.67;101978.03;6188600;28;20229;-54
2021/06/23 11:28:25;;;;;;;6.07;3.47;;;;;;;22.91;41.44;101984.53;6177914;28;20233;-48
2021/06/23 11:31:50;;;;;;;7.75;3.55;;;;;;;23.00;41.19;101978.84;6171581;28;20238;-53
2021/06/23 11:35:12;;;;;;;4.65;2.72;;;;;;;23.66;39.88;101983.06;6176538;28;20242;-49
2021/06/23 11:38:36;;;;;;;4.18;2.95;;;;;;;23.83;38.76;101982.31;6183804;28;20322;-50
2021/06/23 11:41:57;;;;;;;12.68;10.75;;;;;;;23.59;39.78;101982.50;6186819;28;20237;-48
2021/06/23 11:45:20;;;;;;;6.80;3.70;;;;;;;23.51;39.45;101989.06;6178533;28;20250;-50
2021/06/23 11:48:42;;;;;;;5.38;2.83;;;;;;;22.69;39.03;101981.06;6181725;28;20230;-53
2021/06/23 11:52:05;;;;;;;5.72;3.53;;;;;;;23.14;39.34;101977.41;6163874;28;20246;-55
2021/06/23 11:55:27;;;;;;;6.40;3.38;;;;;;;21.96;41.66;101983.03;6167379;28;20234;-51
2021/06/23 11:58:48;;;;;;;6.25;2.90;;;;;;;22.47;41.39;101976.66;6151140;28;20844;-51
2021/06/23 12:02:09;;;;;;;4.70;2.97;;;;;;;22.14;42.59;101974.41;6153236;28;20802;-53
2021/06/23 12:05:31;;;;;;;4.57;2.95;;;;;;;23.95;39.99;101978.22;6137070;28;20235;-55
2021/06/23 12:08:52;;;;;;;6.53;3.92;;;;;;;23.78;38.86;101979.84;6155369;28;20641;-53
2021/06/23 12:12:14;;;;;;;5.38;3.40;;;;;;;23.35;40.17;101989.75;6169835;28;20570;-51
2021/06/23 12:15:35;;;;;;;6.20;3.70;;;;;;;21.55;42.87;101993.44;6154130;28;20307;-50
2021/06/23 12:18:56;;;;;;;5.75;2.88;;;;;;;22.97;41.51;101991.38;6150952;28;20330;-55
2021/06/23 12:22:17;;;;;;;6.78;3.30;;;;;;;23.28;41.53;101998.91;6146909;28;20255;-52
2021/06/23 12:25:41;;;;;;;5.60;3.53;;;;;;;23.49;42.45;101990.94;6179324;28;20230;-49
2021/06/23 12:29:05;;;;;;;9.45;3.90;;;;;;;23.44;42.16;101996.47;6178898;28;20588;-50
2021/06/23 12:32:26;;;;;;;6.28;3.70;;;;;;;23.32;42.09;101995.22;6182661;28;20517;-54
2021/06/23 12:35:47;;;;;;;8.30;4.38;;;;;;;23.13;43.19;101996.97;6174652;28;20237;-55
2021/06/23 12:39:08;;;;;;;19.60;16.60;;;;;;;23.28;43.24;101987.44;6176955;28;20221;-54
2021/06/23 12:42:29;;;;;;;4.47;4.07;;;;;;;22.95;43.96;101986.16;6175079;28;20500;-55
2021/06/23 12:45:51;;;;;;;5.88;3.25;;;;;;;22.80;44.20;101989.47;6177383;28;20222;-54
2021/06/23 12:49:13;;;;;;;5.28;3.38;;;;;;;21.73;46.65;101987.47;6175735;28;20718;-52
2021/06/23 12:52:35;;;;;;;11.45;4.55;;;;;;;22.46;45.03;101987.31;6185424;28;20233;-53
2021/06/23 12:55:56;;;;;;;6.63;3.67;;;;;;;22.56;45.18;101992.19;6181137;28;20233;-54
2021/06/23 12:59:17;;;;;;;6.57;3.90;;;;;;;22.18;45.77;101999.88;6183152;28;20264;-56
2021/06/23 13:02:39;;;;;;;6.30;3.80;;;;;;;21.90;46.60;102004.50;6185286;28;20233;-52
2021/06/23 13:06:04;;;;;;;6.28;3.85;;;;;;;22.87;44.03;101988.25;6180280;28;20222;-53
2021/06/23 13:09:25;;;;;;;6.72;3.63;;;;;;;22.24;44.96;101998.78;6177737;28;20221;-53
2021/06/23 13:12:46;;;;;;;6.22;3.65;;;;;;;22.54;44.51;101988.72;6172880;28;20231;-50
2021/06/23 13:16:10;;;;;;;9.38;3.83;;;;;;;23.11;43.88;101990.81;6174923;28;20331;-60
2021/06/23 13:19:32;;;;;;;5.43;2.92;;;;;;;23.52;42.68;102001.44;6178171;28;20230;-60
2021/06/23 13:22:55;;;;;;;3.92;3.15;;;;;;;22.02;44.97;102001.38;6180719;28;20230;-63
2021/06/23 13:26:17;;;;;;;4.50;2.90;;;;;;;22.63;44.25;101999.91;6180308;28;20234;-61
2021/06/23 13:29:38;;;;;;;7.47;3.40;;;;;;;23.03;42.89;101998.25;6173070;28;20582;-60
2021/06/23 13:32:59;;;;;;;3.85;3.03;;;;;;;23.36;43.08;101996.81;6181814;28;20234;-60
2021/06/23 13:36:22;;;;;;;6.30;3.22;;;;;;;23.48;42.78;101997.19;6180579;28;20262;-63
2021/06/23 13:39:43;;;;;;;8.25;3.05;;;;;;;22.72;45.18;102002.16;6166958;28;20229;-60
2021/06/23 13:43:04;;;;;;;6.38;3.00;;;;;;;22.79;44.91;102003.66;6171921;28;20241;-60
2021/06/23 13:46:25;;;;;;;13.98;12.73;;;;;;;22.98;44.88;102001.09;6179480;28;20253;-62
2021/06/23 13:49:48;;;;;;;13.93;11.65;;;;;;;23.06;45.29;102000.81;6180546;28;20238;-62
2021/06/23 13:53:11;;;;;;;5.45;2.50;;;;;;;22.46;46.17;101993.50;6175243;28;20245;-62
2021/06/23 13:56:32;;;;;;;5.82;4.68;;;;;;;22.98;45.39;102006.41;6170190;28;20233;-60
2021/06/23 13:59:52;;;;;;;8.18;6.70;;;;;;;22.82;45.83;102003.53;6177241;28;20324;-61
2021/06/23 14:03:13;;;;;;;4.25;3.05;;;;;;;23.08;44.30;102006.91;6172165;28;20572;-63
2021/06/23 14:06:35;;;;;;;4.22;3.08;;;;;;;22.31;45.84;102010.03;6174237;28;20225;-62
2021/06/23 14:09:57;;;;;;;6.10;3.22;;;;;;;22.75;45.38;102010.03;6171748;28;20635;-62
2021/06/23 14:13:18;;;;;;;6.95;2.53;;;;;;;22.44;45.51;102011.28;6173191;28;20249;-61
2021/06/23 14:16:39;;;;;;;4.40;2.35;;;;;;;22.52;44.92;102010.97;6175084;28;20565;-63
2021/06/23 14:20:00;;;;;;;5.03;2.38;;;;;;;22.41;45.06;102008.72;6166982;28;20234;-61
2021/06/23 14:23:21;;;;;;;4.65;2.47;;;;;;;22.39;45.64;102016.78;6169116;28;21469;-60
2021/06/23 14:26:43;;;;;;;5.25;2.10;;;;;;;22.76;44.92;102011.72;6180009;28;20229;-61
2021/06/23 14:30:06;;;;;;;3.83;2.20;;;;;;;22.33;45.54;102010.81;6178037;28;20528;-61
2021/06/23 14:33:27;;;;;;;2.15;1.60;;;;;;;22.42;44.58;102016.63;6191626;28;20246;-61
2021/06/23 14:36:50;;;;;;;2.92;1.88;;;;;;;22.63;44.68;102011.41;6189132;28;20241;-60
2021/06/23 14:40:12;;;;;;;6.25;2.47;;;;;;;22.80;44.48;102024.84;6183151;28;20233;-60
2021/06/23 14:43:35;;;;;;;5.15;2.40;;;;;;;23.05;43.52;102033.59;6192448;28;20766;-59
2021/06/23 14:46:56;;;;;;;2.53;1.80;;;;;;;22.65;43.53;102024.63;6178383;28;20262;-60
2021/06/23 14:50:19;;;;;;;3.33;1.92;;;;;;;23.00;43.39;102021.34;6182481;28;20234;-60
2021/06/23 14:53:40;;;;;;;2.63;2.17;;;;;;;23.33;42.82;102017.34;6182486;28;20249;-60
2021/06/23 14:57:01;;;;;;;2.85;1.95;;;;;;;23.31;43.08;102016.53;6194360;28;20225;-60
2021/06/23 15:00:25;;;;;;;3.67;2.50;;;;;;;23.59;42.03;102016.16;6190054;28;20241;-59
2021/06/23 15:03:46;;;;;;;4.38;2.50;;;;;;;23.66;42.19;102020.28;6190805;28;20265;-59
2021/06/23 15:07:09;;;;;;;4.03;1.70;;;;;;;22.89;43.08;102018.25;6200387;28;20257;-59
2021/06/23 15:10:30;;;;;;;4.18;1.33;;;;;;;23.42;42.66;102021.38;6189915;28;20233;-60
2021/06/23 15:13:51;;;;;;;2.05;1.48;;;;;;;23.76;42.00;102013.59;6186310;28;20317;-59
2021/06/23 15:17:13;;;;;;;2.75;1.40;;;;;;;23.63;41.43;102020.41;6189730;28;20238;-59
2021/06/23 15:20:37;;;;;;;2.30;1.63;;;;;;;23.38;42.16;102010.91;6175963;28;20233;-61
2021/06/23 15:23:57;;;;;;;3.50;1.70;;;;;;;23.87;41.95;102009.66;6190607;28;20241;-60
2021/06/23 15:27:18;;;;;;;5.13;2.17;;;;;;;23.37;42.87;102014.47;6189866;28;20234;-59
2021/06/23 15:30:40;;;;;;;4.53;2.60;;;;;;;23.66;41.97;102008.78;6192295;28;20234;-60
2021/06/23 15:34:05;;;;;;;2.63;1.50;;;;;;;23.77;41.51;102004.72;6188155;28;20233;-62
2021/06/23 15:37:26;;;;;;;3.25;1.92;;;;;;;23.68;41.73;102005.13;6182406;28;20623;-61
2021/06/23 15:40:48;;;;;;;6.00;2.80;;;;;;;23.39;42.60;102004.63;6180114;28;20246;-60
2021/06/23 15:44:12;;;;;;;5.43;2.17;;;;;;;23.24;43.09;102005.31;6177476;28;20460;-60
2021/06/23 15:47:36;;;;;;;1.88;1.73;;;;;;;22.89;43.42;102002.34;6191371;28;20599;-60
2021/06/23 15:50:58;;;;;;;3.05;1.42;;;;;;;22.86;43.18;102006.94;6185685;28;20314;-60
2021/06/23 15:54:20;;;;;;;3.15;1.52;;;;;;;22.75;43.81;101996.75;6176572;28;20230;-61
2021/06/23 15:57:44;;;;;;;2.67;1.95;;;;;;;22.52;43.96;102003.84;6164057;28;20328;-62